createdAt,value
2022-08-05T00:02:08.002Z,27.13
2022-08-05T00:04:37.977Z,21.97
2022-08-05T00:07:26.789Z,23.73
2022-08-05T00:09:54.689Z,26.13
2022-08-05T00:12:21.277Z,22.43
2022-08-05T00:14:48.513Z,32.17
2022-08-05T00:17:18.652Z,24.40
2022-08-05T00:20:02.741Z,24.33
2022-08-05T00:22:29.695Z,23.93
2022-08-05T00:24:58.140Z,26.37
2022-08-05T00:27:28.532Z,29.73
2022-08-05T00:30:03.736Z,28.10
2022-08-05T00:32:30.454Z,21.83
2022-08-05T00:35:06.059Z,24.33
2022-08-05T00:37:51.267Z,25.50
2022-08-05T00:40:27.782Z,24.77
2022-08-05T00:43:00.510Z,22.20
2022-08-05T00:45:38.057Z,27.10
2022-08-05T00:48:31.306Z,21.07
2022-08-05T00:50:59.764Z,24.73
2022-08-05T00:53:35.302Z,22.90
2022-08-05T00:56:13.094Z,23.80
2022-08-05T00:58:44.968Z,25.37
2022-08-05T01:01:13.093Z,22.43
2022-08-05T01:03:39.930Z,24.03
2022-08-05T01:06:11.174Z,21.97
2022-08-05T01:08:44.307Z,24.20
2022-08-05T01:11:22.380Z,24.63
2022-08-05T01:14:08.832Z,21.17
2022-08-05T01:16:44.310Z,24.17
2022-08-05T01:19:36.611Z,20.07
2022-08-05T01:22:35.042Z,23.60
2022-08-05T01:25:40.119Z,23.10
2022-08-05T01:28:31.378Z,19.10
2022-08-05T01:31:26.319Z,19.53
2022-08-05T01:34:04.575Z,23.33
2022-08-05T01:36:42.284Z,17.73
2022-08-05T01:39:15.697Z,17.77
2022-08-05T01:42:05.274Z,17.50
2022-08-05T01:44:35.488Z,23.33
2022-08-05T01:47:05.187Z,23.67
2022-08-05T01:49:42.809Z,18.77
2022-08-05T01:52:23.389Z,16.20
2022-08-05T01:54:57.001Z,20.10
2022-08-05T01:58:29.164Z,16.63
2022-08-05T02:00:16.871Z,22.47
2022-08-05T02:02:54.325Z,27.83
2022-08-05T02:05:28.652Z,23.10
2022-08-05T02:08:01.337Z,24.77
2022-08-05T02:10:36.697Z,21.47
2022-08-05T02:13:16.369Z,24.23
2022-08-05T02:15:59.597Z,20.57
2022-08-05T02:18:34.828Z,24.83
2022-08-05T02:21:15.014Z,26.13
2022-08-05T02:23:44.730Z,26.10
2022-08-05T02:26:15.795Z,22.17
2022-08-05T02:28:46.354Z,22.07
2022-08-05T02:31:34.874Z,21.20
2022-08-05T02:34:09.171Z,17.73
2022-08-05T02:36:39.073Z,19.70
2022-08-05T02:39:09.113Z,19.07
2022-08-05T02:41:57.975Z,18.47
2022-08-05T02:44:26.606Z,19.27
2022-08-05T02:47:00.076Z,24.23
2022-08-05T02:49:35.956Z,21.20
2022-08-05T02:52:07.892Z,20.03
2022-08-05T02:54:37.709Z,19.13
2022-08-05T02:58:11.881Z,21.50
2022-08-05T02:59:59.443Z,22.43
2022-08-05T03:02:37.776Z,23.33
2022-08-05T03:05:07.480Z,24.20
2022-08-05T03:07:59.341Z,22.53
2022-08-05T03:10:24.874Z,24.20
2022-08-05T03:12:53.591Z,19.03
2022-08-05T03:15:23.655Z,24.60
2022-08-05T03:17:56.172Z,28.60
2022-08-05T03:20:25.102Z,28.50
2022-08-05T03:22:57.306Z,26.87
2022-08-05T03:26:04.993Z,19.93
2022-08-05T03:28:19.837Z,23.60
2022-08-05T03:30:48.192Z,21.07
2022-08-05T03:33:16.085Z,18.97
2022-08-05T03:35:45.593Z,22.30
2022-08-05T03:38:14.322Z,20.97
2022-08-05T03:40:47.273Z,19.27
2022-08-05T03:44:09.597Z,23.53
2022-08-05T03:46:03.889Z,22.83
2022-08-05T03:48:35.069Z,25.77
2022-08-05T03:52:37.315Z,26.33
2022-08-05T03:55:34.061Z,21.67
2022-08-05T03:56:58.895Z,21.90
2022-08-05T03:59:47.318Z,25.67
2022-08-05T04:02:39.194Z,24.87
2022-08-05T04:05:13.172Z,24.07
2022-08-05T04:07:57.053Z,20.00
2022-08-05T04:10:27.507Z,20.73
2022-08-05T04:12:55.433Z,18.37
2022-08-05T04:15:26.616Z,18.23
2022-08-05T04:17:59.945Z,25.43
2022-08-05T04:20:27.416Z,18.93
2022-08-05T04:22:55.641Z,18.90
2022-08-05T04:25:24.182Z,20.83
2022-08-05T04:28:11.317Z,16.17
2022-08-05T04:30:39.311Z,20.50
2022-08-05T04:33:06.256Z,14.73
2022-08-05T04:36:10.645Z,19.13
2022-08-05T04:38:20.911Z,15.50
2022-08-05T04:40:50.918Z,18.10
2022-08-05T04:43:17.825Z,22.67
2022-08-05T04:45:55.016Z,19.23
2022-08-05T04:48:27.320Z,16.87
2022-08-05T04:51:02.753Z,15.67
2022-08-05T04:53:36.416Z,17.23
2022-08-05T04:56:33.839Z,17.97
2022-08-05T04:58:54.154Z,19.87
2022-08-05T05:02:06.213Z,18.47
2022-08-05T05:04:07.106Z,17.77
2022-08-05T05:06:44.453Z,15.53
2022-08-05T05:09:14.176Z,13.93
2022-08-05T05:11:54.445Z,18.17
2022-08-05T05:14:31.718Z,14.50
2022-08-05T05:17:00.122Z,13.33
2022-08-05T05:19:37.157Z,15.23
2022-08-05T05:22:24.551Z,14.90
2022-08-05T05:24:58.006Z,17.13
2022-08-05T05:27:44.213Z,17.93
2022-08-05T05:30:30.616Z,14.40
2022-08-05T05:33:13.936Z,16.40
2022-08-05T05:35:43.408Z,11.70
2022-08-05T05:38:13.146Z,11.27
2022-08-05T05:40:47.940Z,11.20
2022-08-05T05:43:22.270Z,11.07
2022-08-05T05:46:10.643Z,13.40
2022-08-05T05:48:44.421Z,8.43
2022-08-05T05:51:15.210Z,12.77
2022-08-05T05:53:54.009Z,11.93
2022-08-05T05:56:31.801Z,13.60
2022-08-05T05:59:05.581Z,10.53
2022-08-05T06:01:37.406Z,9.23
2022-08-05T06:04:13.131Z,8.33
2022-08-05T06:06:42.906Z,12.30
2022-08-05T06:09:16.747Z,9.60
2022-08-05T06:11:48.845Z,12.77
2022-08-05T06:14:28.877Z,11.87
2022-08-05T06:16:56.774Z,11.57
2022-08-05T06:19:34.127Z,11.07
2022-08-05T06:22:06.699Z,10.33
2022-08-05T06:24:34.914Z,9.20
2022-08-05T06:27:03.867Z,11.63
2022-08-05T06:29:49.250Z,10.23
2022-08-05T06:32:26.129Z,9.57
2022-08-05T06:34:57.525Z,12.13
2022-08-05T06:37:57.020Z,10.00
2022-08-05T06:40:18.364Z,10.43
2022-08-05T06:42:52.769Z,11.23
2022-08-05T06:46:03.411Z,11.27
2022-08-05T06:48:37.246Z,8.77
2022-08-05T06:50:55.793Z,8.97
2022-08-05T06:53:27.665Z,9.33
2022-08-05T06:55:55.152Z,11.23
2022-08-05T06:58:35.437Z,13.83
2022-08-05T07:01:05.919Z,18.43
2022-08-05T07:03:33.798Z,12.40
2022-08-05T07:06:06.010Z,12.50
2022-08-05T07:08:47.988Z,12.30
2022-08-05T07:11:22.397Z,10.37
2022-08-05T07:14:15.336Z,11.20
2022-08-05T07:18:00.418Z,11.80
2022-08-05T07:22:28.389Z,9.03
2022-08-05T07:25:24.116Z,14.67
2022-08-05T07:28:01.489Z,11.43
2022-08-05T07:30:34.531Z,13.30
2022-08-05T07:33:09.407Z,9.77
2022-08-05T07:36:03.189Z,11.10
2022-08-05T07:38:32.836Z,10.40
2022-08-05T07:41:34.981Z,8.53
2022-08-05T07:43:58.117Z,6.97
2022-08-05T07:46:27.506Z,9.37
2022-08-05T07:49:01.909Z,10.43
2022-08-05T07:51:40.826Z,13.33
2022-08-05T07:54:15.956Z,12.00
2022-08-05T07:57:13.758Z,10.37
2022-08-05T07:59:40.396Z,12.80
2022-08-05T08:02:16.397Z,13.07
2022-08-05T08:04:48.287Z,12.63
2022-08-05T08:07:15.564Z,12.60
2022-08-05T08:09:42.712Z,11.93
2022-08-05T08:12:19.196Z,12.20
2022-08-05T08:14:56.582Z,14.43
2022-08-05T08:17:24.228Z,12.83
2022-08-05T08:20:21.241Z,11.23
2022-08-05T08:22:41.964Z,8.20
2022-08-05T08:25:16.402Z,7.80
2022-08-05T08:27:45.099Z,6.83
2022-08-05T08:30:29.744Z,8.00
2022-08-05T08:33:08.568Z,7.60
2022-08-05T08:35:41.092Z,8.37
2022-08-05T08:38:11.662Z,7.47
2022-08-05T08:40:50.511Z,9.13
2022-08-05T08:44:57.926Z,7.70
2022-08-05T08:46:06.226Z,7.73
2022-08-05T08:49:02.462Z,7.43
2022-08-05T08:52:04.179Z,6.87
2022-08-05T08:54:14.379Z,6.30
2022-08-05T08:56:47.916Z,6.73
2022-08-05T08:59:20.711Z,5.73
2022-08-05T09:01:57.314Z,7.50
2022-08-05T09:04:30.387Z,4.90
2022-08-05T09:07:01.608Z,10.07
2022-08-05T09:09:38.086Z,8.43
2022-08-05T09:12:30.231Z,6.53
2022-08-05T09:15:05.650Z,7.00
2022-08-05T09:17:40.526Z,6.07
2022-08-05T09:20:09.208Z,6.17
2022-08-05T09:23:19.971Z,6.97
2022-08-05T09:26:06.493Z,7.17
2022-08-05T09:28:37.814Z,5.67
2022-08-05T09:31:22.408Z,9.23
2022-08-05T09:34:03.518Z,4.63
2022-08-05T09:36:55.873Z,6.17
2022-08-05T09:39:45.840Z,6.70
2022-08-05T09:42:20.276Z,7.87
2022-08-05T09:44:56.379Z,9.57
2022-08-05T09:47:36.432Z,6.53
2022-08-05T09:50:18.193Z,8.07
2022-08-05T09:53:01.114Z,8.50
2022-08-05T09:55:58.453Z,8.60
2022-08-05T09:58:15.724Z,7.57
2022-08-05T10:01:01.588Z,5.90
2022-08-05T10:03:58.701Z,6.83
2022-08-05T10:06:28.081Z,7.30
2022-08-05T10:08:56.406Z,6.00
2022-08-05T10:11:24.073Z,6.93
2022-08-05T10:13:58.208Z,6.13
2022-08-05T10:16:33.899Z,6.17
2022-08-05T10:19:04.323Z,8.60
2022-08-05T10:21:40.165Z,7.93
2022-08-05T10:24:13.528Z,8.97
2022-08-05T10:26:49.136Z,8.83
2022-08-05T10:29:23.937Z,9.53
2022-08-05T10:32:53.047Z,9.13
2022-08-05T10:35:00.796Z,9.63
2022-08-05T10:37:40.461Z,10.00
2022-08-05T10:40:34.055Z,8.30
2022-08-05T10:43:43.437Z,9.30
2022-08-05T10:46:13.257Z,8.60
2022-08-05T10:48:57.450Z,7.50
2022-08-05T10:51:28.765Z,8.70
2022-08-05T10:54:00.924Z,7.70
2022-08-05T10:56:45.263Z,8.37
2022-08-05T11:00:02.938Z,8.87
2022-08-05T11:02:14.788Z,9.43
2022-08-05T11:05:04.016Z,7.93
2022-08-05T11:07:32.761Z,9.10
2022-08-05T11:10:29.216Z,9.07
2022-08-05T11:12:59.488Z,9.70
2022-08-05T11:15:43.962Z,9.70
2022-08-05T11:18:35.082Z,9.07
2022-08-05T11:21:11.851Z,9.77
2022-08-05T11:24:04.648Z,9.00
2022-08-05T11:26:38.264Z,7.83
2022-08-05T11:29:13.916Z,7.77
2022-08-05T11:31:57.500Z,10.77
2022-08-05T11:34:37.555Z,9.03
2022-08-05T11:37:06.075Z,8.77
2022-08-05T11:40:00.216Z,10.30
2022-08-05T11:42:31.657Z,8.63
2022-08-05T11:45:03.509Z,7.87
2022-08-05T11:47:49.690Z,10.40
2022-08-05T11:50:17.189Z,10.07
2022-08-05T11:52:46.067Z,12.03
2022-08-05T11:55:15.372Z,10.40
2022-08-05T11:58:08.205Z,9.63
2022-08-05T12:00:37.775Z,8.70
2022-08-05T12:03:28.818Z,8.60
2022-08-05T12:06:05.852Z,10.20
2022-08-05T12:08:33.624Z,8.07
2022-08-05T12:11:05.529Z,8.77
2022-08-05T12:13:48.628Z,8.80
2022-08-05T12:16:19.091Z,7.87
2022-08-05T12:18:52.803Z,10.90
2022-08-05T12:21:39.246Z,9.50
2022-08-05T12:24:11.661Z,8.80
2022-08-05T12:26:47.640Z,7.40
2022-08-05T12:29:22.971Z,7.60
2022-08-05T12:32:01.867Z,7.23
2022-08-05T12:34:31.889Z,7.33
2022-08-05T12:37:03.290Z,4.50
2022-08-05T12:39:34.488Z,3.90
2022-08-05T12:42:09.045Z,4.97
2022-08-05T12:44:35.849Z,3.83
2022-08-05T12:47:03.754Z,2.87
2022-08-05T12:50:04.339Z,3.30
2022-08-05T12:52:41.753Z,3.90
2022-08-05T12:55:22.314Z,5.50
2022-08-05T12:58:49.828Z,2.83
2022-08-05T13:02:02.843Z,3.37
2022-08-05T13:03:41.810Z,4.03
2022-08-05T13:06:16.031Z,3.43
2022-08-05T13:08:50.818Z,3.30
2022-08-05T13:12:01.696Z,5.37
2022-08-05T13:14:20.143Z,3.20
2022-08-05T13:16:54.266Z,5.33
2022-08-05T13:19:26.712Z,4.80
2022-08-05T13:22:01.271Z,5.23
2022-08-05T13:24:44.976Z,4.93
2022-08-05T13:27:39.081Z,4.37
2022-08-05T13:30:35.221Z,4.23
2022-08-05T13:33:00.948Z,3.37
2022-08-05T13:35:42.536Z,3.97
2022-08-05T13:38:28.657Z,2.90
2022-08-05T13:41:00.737Z,4.30
2022-08-05T13:43:45.266Z,3.63
2022-08-05T13:46:14.873Z,2.73
2022-08-05T13:48:57.717Z,6.73
2022-08-05T13:51:29.491Z,4.33
2022-08-05T13:54:03.249Z,5.03
2022-08-05T13:56:38.709Z,5.23
2022-08-05T13:59:19.764Z,4.30
2022-08-05T14:01:58.146Z,5.20
2022-08-05T14:04:54.264Z,4.37
2022-08-05T14:07:55.387Z,4.00
2022-08-05T14:10:18.735Z,6.03
2022-08-05T14:12:57.080Z,5.57
2022-08-05T14:16:07.546Z,5.60
2022-08-05T14:18:17.894Z,4.77
2022-08-05T14:20:48.921Z,3.87
2022-08-05T14:23:25.694Z,5.17
2022-08-05T14:25:58.398Z,3.80
2022-08-05T14:28:35.621Z,7.20
2022-08-05T14:31:02.794Z,4.03
2022-08-05T14:33:56.622Z,4.20
2022-08-05T14:36:21.252Z,3.90
2022-08-05T14:38:48.297Z,4.47
2022-08-05T14:41:14.993Z,4.87
2022-08-05T14:43:58.833Z,5.30
2022-08-05T14:46:36.276Z,3.80
2022-08-05T14:49:07.173Z,6.33
2022-08-05T14:51:42.893Z,4.93
2022-08-05T14:54:29.913Z,3.37
2022-08-05T14:57:01.028Z,4.93
2022-08-05T14:59:35.730Z,4.43
2022-08-05T15:02:15.668Z,4.20
2022-08-05T15:04:43.242Z,4.37
2022-08-05T15:07:09.885Z,5.27
2022-08-05T15:09:52.316Z,5.00
2022-08-05T15:12:23.121Z,6.17
2022-08-05T15:14:57.399Z,6.33
2022-08-05T15:17:46.685Z,4.53
2022-08-05T15:20:18.473Z,5.33
2022-08-05T15:22:54.129Z,6.87
2022-08-05T15:25:23.469Z,4.93
2022-08-05T15:28:08.049Z,5.90
2022-08-05T15:30:40.001Z,5.67
2022-08-05T15:33:06.609Z,5.03
2022-08-05T15:35:36.018Z,5.40
2022-08-05T15:38:33.087Z,5.27
2022-08-05T15:41:04.359Z,4.40
2022-08-05T15:43:45.397Z,6.53
2022-08-05T15:46:13.309Z,8.03
2022-08-05T15:48:40.788Z,7.63
2022-08-05T15:52:04.287Z,6.27
2022-08-05T15:54:14.951Z,5.70
2022-08-05T15:56:41.777Z,6.40
2022-08-05T15:59:08.251Z,6.50
2022-08-05T16:01:39.839Z,5.50
2022-08-05T16:04:08.660Z,9.67
2022-08-05T16:06:37.120Z,4.37
2022-08-05T16:09:04.140Z,5.07
2022-08-05T16:11:42.482Z,5.23
2022-08-05T16:14:10.436Z,4.43
2022-08-05T16:16:43.976Z,4.80
2022-08-05T16:19:25.606Z,4.67
2022-08-05T16:22:02.720Z,4.40
2022-08-05T16:24:40.172Z,4.40
2022-08-05T16:27:09.023Z,4.53
2022-08-05T16:29:38.585Z,6.00
2022-08-05T16:32:06.453Z,4.10
2022-08-05T16:34:36.088Z,4.53
2022-08-05T16:37:03.466Z,4.53
2022-08-05T16:40:04.982Z,3.73
2022-08-05T16:42:34.924Z,2.43
2022-08-05T16:46:02.993Z,2.13
2022-08-05T16:47:55.583Z,4.20
2022-08-05T16:50:26.494Z,3.00
2022-08-05T16:52:52.913Z,1.60
2022-08-05T16:55:23.205Z,1.90
2022-08-05T16:58:00.476Z,2.27
2022-08-05T17:00:34.512Z,2.57
2022-08-05T17:03:15.204Z,3.83
2022-08-05T17:05:50.266Z,1.63
2022-08-05T17:08:36.473Z,2.63
2022-08-05T17:11:16.542Z,1.30
2022-08-05T17:13:44.477Z,5.53
2022-08-05T17:16:32.811Z,1.83
2022-08-05T17:18:58.623Z,0.90
2022-08-05T17:21:36.243Z,1.73
2022-08-05T17:24:19.736Z,1.87
2022-08-05T17:26:58.297Z,1.77
2022-08-05T17:29:33.236Z,2.90
2022-08-05T17:32:00.900Z,2.60
2022-08-05T17:34:30.017Z,2.47
2022-08-05T17:36:59.985Z,4.40
2022-08-05T17:39:34.423Z,2.17
2022-08-05T17:42:18.520Z,2.50
2022-08-05T17:44:50.297Z,4.73
2022-08-05T17:47:22.971Z,2.00
2022-08-05T17:49:59.501Z,1.30
2022-08-05T17:52:30.980Z,2.80
2022-08-05T17:54:58.172Z,3.20
2022-08-05T17:57:25.764Z,3.13
2022-08-05T18:00:03.587Z,1.10
2022-08-05T18:02:35.222Z,2.10
2022-08-05T18:05:03.473Z,2.37
2022-08-05T18:07:41.435Z,2.33
2022-08-05T18:10:11.295Z,1.47
2022-08-05T18:12:39.096Z,1.60
2022-08-05T18:15:06.284Z,2.97
2022-08-05T18:18:00.240Z,1.70
2022-08-05T18:20:29.415Z,3.93
2022-08-05T18:23:00.554Z,2.33
2022-08-05T18:25:38.915Z,1.90
2022-08-05T18:28:06.665Z,1.43
2022-08-05T18:30:34.492Z,1.43
2022-08-05T18:33:01.859Z,1.67
2022-08-05T18:35:59.615Z,2.30
2022-08-05T18:38:19.444Z,1.87
2022-08-05T18:41:55.342Z,1.07
2022-08-05T18:43:43.205Z,1.90
2022-08-05T18:46:19.559Z,1.40
2022-08-05T18:48:51.919Z,3.00
2022-08-05T18:52:04.745Z,2.63
2022-08-05T18:54:26.052Z,1.47
2022-08-05T18:56:54.596Z,2.47
2022-08-05T18:59:43.995Z,1.83
2022-08-05T19:02:11.330Z,2.80
2022-08-05T19:05:02.167Z,1.93
2022-08-05T19:07:45.231Z,3.67
2022-08-05T19:10:12.286Z,1.70
2022-08-05T19:12:38.775Z,2.17
2022-08-05T19:15:05.801Z,1.40
2022-08-05T19:17:59.015Z,1.73
2022-08-05T19:20:34.804Z,1.87
2022-08-05T19:23:02.648Z,1.83
2022-08-05T19:25:39.235Z,1.67
2022-08-05T19:28:10.314Z,1.53
2022-08-05T19:30:36.809Z,2.00
2022-08-05T19:33:05.194Z,1.63
2022-08-05T19:35:56.516Z,3.10
2022-08-05T19:38:26.415Z,1.47
2022-08-05T19:40:53.450Z,2.67
2022-08-05T19:44:04.826Z,2.97
2022-08-05T19:46:06.320Z,2.40
2022-08-05T19:48:43.516Z,2.37
2022-08-05T19:52:05.040Z,1.50
2022-08-05T19:54:21.658Z,2.97
2022-08-05T19:56:54.143Z,1.13
2022-08-05T19:59:51.649Z,1.47
2022-08-05T20:02:07.669Z,3.33
2022-08-05T20:04:34.187Z,2.33
2022-08-05T20:07:01.016Z,2.77
2022-08-05T20:09:28.590Z,1.83
2022-08-05T20:12:15.094Z,3.73
2022-08-05T20:14:41.830Z,2.13
2022-08-05T20:17:09.895Z,2.13
2022-08-05T20:19:41.336Z,2.80
2022-08-05T20:22:09.664Z,3.13
2022-08-05T20:24:36.215Z,2.20
2022-08-05T20:27:04.457Z,1.43
2022-08-05T20:29:38.196Z,1.67
2022-08-05T20:32:06.502Z,2.27
2022-08-05T20:34:32.987Z,1.77
2022-08-05T20:37:01.171Z,3.47
2022-08-05T20:39:35.422Z,2.57
2022-08-05T20:42:02.402Z,2.53
2022-08-05T20:44:29.922Z,3.13
2022-08-05T20:46:59.796Z,2.93
2022-08-05T20:49:26.940Z,1.33
2022-08-05T20:51:55.049Z,1.87
2022-08-05T20:54:24.703Z,2.33
2022-08-05T20:56:52.353Z,2.27
2022-08-05T20:59:26.503Z,2.90
2022-08-05T21:01:57.243Z,1.73
2022-08-05T21:04:26.918Z,3.70
2022-08-05T21:06:54.939Z,2.10
2022-08-05T21:09:22.665Z,1.33
2022-08-05T21:12:07.293Z,2.43
2022-08-05T21:14:36.333Z,2.87
2022-08-05T21:17:05.458Z,2.83
2022-08-05T21:19:46.669Z,1.83
2022-08-05T21:22:14.317Z,2.07
2022-08-05T21:24:40.888Z,2.37
2022-08-05T21:27:09.104Z,2.23
2022-08-05T21:29:40.767Z,1.90
2022-08-05T21:32:07.531Z,3.63
2022-08-05T21:34:35.404Z,3.27
2022-08-05T21:37:02.570Z,3.40
2022-08-05T21:39:29.714Z,2.73
2022-08-05T21:42:01.284Z,1.57
2022-08-05T21:44:32.326Z,1.53
2022-08-05T21:46:59.625Z,2.30
2022-08-05T21:49:56.623Z,1.37
2022-08-05T21:52:23.054Z,2.93
2022-08-05T21:55:06.788Z,1.47
2022-08-05T21:57:34.281Z,2.30
2022-08-05T22:00:06.159Z,1.97
2022-08-05T22:02:42.868Z,2.10
2022-08-05T22:05:15.298Z,1.83
2022-08-05T22:07:59.133Z,1.13
2022-08-05T22:10:29.220Z,2.90
2022-08-05T22:12:59.077Z,2.03
2022-08-05T22:16:01.563Z,2.13
2022-08-05T22:18:24.856Z,1.13
2022-08-05T22:20:52.553Z,2.63
2022-08-05T22:24:02.336Z,2.13
2022-08-05T22:26:43.004Z,1.60
2022-08-05T22:29:17.425Z,3.23
2022-08-05T22:31:45.312Z,1.67
2022-08-05T22:34:12.842Z,2.10
2022-08-05T22:36:46.965Z,3.00
2022-08-05T22:39:19.715Z,3.00
2022-08-05T22:42:10.151Z,2.00
2022-08-05T22:44:34.721Z,1.27
2022-08-05T22:47:01.264Z,3.27
2022-08-05T22:50:17.855Z,1.40
2022-08-05T22:52:30.612Z,3.20
2022-08-05T22:55:01.198Z,2.63
2022-08-05T22:57:33.961Z,1.67
2022-08-05T23:00:03.690Z,2.17
2022-08-05T23:02:30.430Z,1.37
2022-08-05T23:05:01.946Z,1.93
2022-08-05T23:07:32.430Z,1.70
2022-08-05T23:10:10.404Z,2.77
2022-08-05T23:12:36.848Z,1.20
2022-08-05T23:15:08.991Z,3.83
2022-08-05T23:17:59.665Z,2.37
2022-08-05T23:20:24.399Z,4.10
2022-08-05T23:22:55.934Z,1.90
2022-08-05T23:25:50.922Z,3.63
2022-08-05T23:28:22.879Z,2.90
2022-08-05T23:30:53.195Z,1.83
2022-08-05T23:33:26.594Z,2.83
2022-08-05T23:36:10.456Z,2.10
2022-08-05T23:38:37.272Z,2.53
2022-08-05T23:41:03.758Z,2.37
2022-08-05T23:43:49.696Z,3.47
2022-08-05T23:46:21.292Z,2.03
2022-08-05T23:49:00.720Z,2.60
2022-08-05T23:51:53.663Z,2.93
2022-08-05T23:54:38.160Z,2.90
2022-08-05T23:57:06.570Z,3.30
